Weather at Longdongbao Airport

Public forecast

Using degrees Celsius for public forecast. Weather courtesy of forecast.io.

Current aviation weather report (METAR) for Longdongbao Airport

Retrieved 2020/11/28 17:00 UTC (2 hours ago):

ZUGY 281700Z 36001MPS 9999 FEW015 OVC033 05/03 Q1029 NOSIG

Aviation forecast (TAF) for Longdongbao Airport

Retrieved 2020/11/28 18:03 UTC (27 minutes ago):

TAF TAF ZUGY 281505Z 2818/2918 03003MPS 6000 SCT015 OVC026 TX11/2907Z TN02/2822Z